createdAt,value
2022-10-13T00:00:17.599Z,101204.74
2022-10-13T00:03:07.875Z,101206.30
2022-10-13T00:05:42.590Z,101207.30
2022-10-13T00:08:11.833Z,101205.87
2022-10-13T00:10:50.542Z,101208.46
2022-10-13T00:13:21.559Z,101208.01
2022-10-13T00:15:50.313Z,101210.33
2022-10-13T00:18:19.027Z,101207.27
2022-10-13T00:20:50.106Z,101204.06
2022-10-13T00:23:19.150Z,101200.58
2022-10-13T00:25:51.035Z,101202.08
2022-10-13T00:28:21.026Z,101202.64
2022-10-13T00:30:50.515Z,101199.48
2022-10-13T00:33:21.070Z,101199.90
2022-10-13T00:35:50.317Z,101200.78
2022-10-13T00:38:22.056Z,101201.83
2022-10-13T00:40:56.887Z,101199.45
2022-10-13T00:44:12.792Z,101203.55
2022-10-13T00:46:43.354Z,101200.83
2022-10-13T00:49:15.897Z,101200.83
2022-10-13T00:51:52.749Z,101205.52
2022-10-13T00:54:25.604Z,101199.98
2022-10-13T00:56:56.171Z,101201.38
2022-10-13T00:59:29.613Z,101196.02
2022-10-13T01:02:01.252Z,101196.93
2022-10-13T01:04:37.613Z,101191.98
2022-10-13T01:07:07.588Z,101189.30
2022-10-13T01:09:42.551Z,101188.94
2022-10-13T01:12:48.581Z,101187.09
2022-10-13T01:15:39.022Z,101184.48
2022-10-13T01:18:28.644Z,101180.84
2022-10-13T01:20:57.136Z,101179.70
2022-10-13T01:23:45.929Z,101174.95
2022-10-13T01:26:29.602Z,101174.72
2022-10-13T01:29:07.361Z,101173.29
2022-10-13T01:31:54.954Z,101175.62
2022-10-13T01:34:32.431Z,101174.59
2022-10-13T01:37:47.170Z,101173.85
2022-10-13T01:40:28.122Z,101172.16
2022-10-13T01:42:59.510Z,101169.32
2022-10-13T01:45:38.963Z,101171.09
2022-10-13T01:48:10.150Z,101165.20
2022-10-13T01:50:45.038Z,101160.45
2022-10-13T01:53:15.646Z,101162.20
2022-10-13T01:55:56.423Z,101156.97
2022-10-13T01:58:29.210Z,101155.98
2022-10-13T02:01:22.628Z,101154.13
2022-10-13T02:04:17.251Z,101152.63
2022-10-13T02:07:01.334Z,101153.00
2022-10-13T02:09:54.523Z,101150.14
2022-10-13T02:12:40.272Z,101147.77
2022-10-13T02:15:10.673Z,101151.91
2022-10-13T02:17:42.563Z,101147.06
2022-10-13T02:20:12.191Z,101146.88
2022-10-13T02:22:46.199Z,101149.02
2022-10-13T02:25:17.191Z,101147.76
2022-10-13T02:27:46.072Z,101150.84
2022-10-13T02:30:24.562Z,101149.05
2022-10-13T02:32:53.482Z,101151.56
2022-10-13T02:35:24.440Z,101149.86
2022-10-13T02:37:55.388Z,101150.48
2022-10-13T02:40:24.174Z,101148.89
2022-10-13T02:42:53.487Z,101148.13
2022-10-13T02:45:27.075Z,101145.86
2022-10-13T02:47:58.318Z,101140.85
2022-10-13T02:50:27.896Z,101139.98
2022-10-13T02:53:00.591Z,101140.84
2022-10-13T02:55:30.710Z,101137.04
2022-10-13T02:57:59.391Z,101132.81
2022-10-13T03:00:29.588Z,101130.73
2022-10-13T03:02:58.532Z,101130.54
2022-10-13T03:05:29.348Z,101130.40
2022-10-13T03:07:58.023Z,101131.40
2022-10-13T03:10:27.372Z,101125.03
2022-10-13T03:12:57.263Z,101125.16
2022-10-13T03:15:26.417Z,101125.52
2022-10-13T03:17:58.552Z,101128.25
2022-10-13T03:20:27.368Z,101130.41
2022-10-13T03:22:56.382Z,101127.35
2022-10-13T03:25:26.205Z,101124.23
2022-10-13T03:27:56.911Z,101123.16
2022-10-13T03:30:26.733Z,101124.14
2022-10-13T03:32:57.285Z,101125.67
2022-10-13T03:35:29.877Z,101124.64
2022-10-13T03:37:59.124Z,101123.41
2022-10-13T03:40:29.384Z,101123.37
2022-10-13T03:42:59.842Z,101123.50
2022-10-13T03:45:32.355Z,101124.06
2022-10-13T03:48:01.059Z,101121.57
2022-10-13T03:50:29.744Z,101117.30
2022-10-13T03:52:58.758Z,101119.52
2022-10-13T03:55:27.539Z,101118.98
2022-10-13T03:57:58.805Z,101119.79
2022-10-13T04:00:28.124Z,101119.95
2022-10-13T04:02:58.059Z,101117.38
2022-10-13T04:05:26.865Z,101115.33
2022-10-13T04:07:55.675Z,101114.53
2022-10-13T04:10:28.139Z,101114.66
2022-10-13T04:12:58.216Z,101116.11
2022-10-13T04:15:29.526Z,101118.59
2022-10-13T04:17:58.815Z,101112.47
2022-10-13T04:20:31.049Z,101109.96
2022-10-13T04:22:59.774Z,101112.93
2022-10-13T04:25:35.331Z,101112.58
2022-10-13T04:28:06.748Z,101115.25
2022-10-13T04:30:37.134Z,101112.05
2022-10-13T04:33:06.104Z,101113.04
2022-10-13T04:35:40.474Z,101111.35
2022-10-13T04:38:10.948Z,101110.50
2022-10-13T04:40:39.657Z,101110.17
2022-10-13T04:43:10.484Z,101111.44
2022-10-13T04:45:39.252Z,101112.58
2022-10-13T04:48:09.451Z,101109.58
2022-10-13T04:50:40.330Z,101109.66
2022-10-13T04:53:14.209Z,101108.16
2022-10-13T04:55:45.442Z,101109.32
2022-10-13T04:58:14.123Z,101113.36
2022-10-13T05:00:46.840Z,101114.19
2022-10-13T05:03:17.176Z,101115.47
2022-10-13T05:05:46.999Z,101115.63
2022-10-13T05:08:18.564Z,101115.14
2022-10-13T05:11:00.929Z,101117.19
2022-10-13T05:13:32.887Z,101113.94
2022-10-13T05:16:01.689Z,101113.71
2022-10-13T05:18:30.520Z,101111.55
2022-10-13T05:21:28.392Z,101104.63
2022-10-13T05:24:00.750Z,101104.04
2022-10-13T05:26:32.491Z,101099.73
2022-10-13T05:29:03.280Z,101094.46
2022-10-13T05:31:36.343Z,101093.21
2022-10-13T05:34:12.339Z,101092.38
2022-10-13T05:36:41.181Z,101089.73
2022-10-13T05:39:12.036Z,101089.18
2022-10-13T05:41:41.279Z,101090.00
2022-10-13T05:44:17.023Z,101090.46
2022-10-13T05:46:55.265Z,101088.99
2022-10-13T05:49:24.325Z,101090.66
2022-10-13T05:51:57.935Z,101089.98
2022-10-13T05:54:40.089Z,101081.15
2022-10-13T05:57:40.747Z,101081.71
2022-10-13T06:00:13.820Z,101076.67
2022-10-13T06:02:50.253Z,101080.05
2022-10-13T06:05:23.392Z,101082.02
2022-10-13T06:07:56.388Z,101083.20
2022-10-13T06:10:26.223Z,101085.52
2022-10-13T06:12:55.200Z,101085.20
2022-10-13T06:15:28.525Z,101087.09
2022-10-13T06:17:58.242Z,101093.05
2022-10-13T06:20:29.863Z,101095.55
2022-10-13T06:22:58.880Z,101093.65
2022-10-13T06:26:18.777Z,101093.72
2022-10-13T06:28:50.511Z,101091.33
2022-10-13T06:31:21.351Z,101087.27
2022-10-13T06:33:50.362Z,101087.00
2022-10-13T06:36:19.017Z,101085.33
2022-10-13T06:38:47.941Z,101080.52
2022-10-13T06:41:19.204Z,101079.63
2022-10-13T06:43:49.254Z,101076.56
2022-10-13T06:46:21.343Z,101076.21
2022-10-13T06:48:51.661Z,101067.97
2022-10-13T06:51:23.863Z,101064.77
2022-10-13T06:54:06.637Z,101066.42
2022-10-13T06:57:02.947Z,101060.69
2022-10-13T06:59:52.468Z,101060.08
2022-10-13T07:02:21.787Z,101056.81
2022-10-13T07:04:51.050Z,101054.77
2022-10-13T07:07:19.896Z,101053.33
2022-10-13T07:09:50.121Z,101049.77
2022-10-13T07:12:21.533Z,101050.57
2022-10-13T07:14:52.496Z,101055.11
2022-10-13T07:17:21.855Z,101056.30
2022-10-13T07:19:55.673Z,101054.79
2022-10-13T07:22:27.595Z,101051.25
2022-10-13T07:24:56.992Z,101050.41
2022-10-13T07:27:53.071Z,101041.80
2022-10-13T07:30:22.303Z,101041.23
2022-10-13T07:32:51.321Z,101038.80
2022-10-13T07:35:24.782Z,101038.34
2022-10-13T07:37:57.383Z,101035.52
2022-10-13T07:40:27.172Z,101034.61
2022-10-13T07:42:57.375Z,101028.80
2022-10-13T07:45:27.510Z,101031.71
2022-10-13T07:47:57.284Z,101027.06
2022-10-13T07:50:28.506Z,101027.02
2022-10-13T07:52:57.515Z,101023.69
2022-10-13T07:55:26.705Z,101020.30
2022-10-13T07:57:56.214Z,101018.50
2022-10-13T08:00:27.165Z,101019.72
2022-10-13T08:02:56.306Z,101012.59
2022-10-13T08:05:25.374Z,101009.03
2022-10-13T08:07:58.277Z,101002.00
2022-10-13T08:10:30.779Z,100999.92
2022-10-13T08:13:15.692Z,100993.39
2022-10-13T08:15:49.103Z,100996.77
2022-10-13T08:18:18.468Z,100994.23
2022-10-13T08:20:47.495Z,100993.53
2022-10-13T08:23:16.555Z,100991.58
2022-10-13T08:25:52.119Z,100992.28
2022-10-13T08:28:26.903Z,100993.63
2022-10-13T08:31:00.284Z,100992.08
2022-10-13T08:33:29.164Z,100992.31
2022-10-13T08:35:58.527Z,100989.11
2022-10-13T08:38:28.805Z,100983.47
2022-10-13T08:40:59.054Z,100984.40
2022-10-13T08:43:28.447Z,100986.64
2022-10-13T08:46:01.474Z,100986.25
2022-10-13T08:48:34.136Z,100978.52
2022-10-13T08:51:07.296Z,100977.58
2022-10-13T08:53:45.469Z,100969.64
2022-10-13T08:56:34.036Z,100969.26
2022-10-13T08:59:05.094Z,100965.84
2022-10-13T09:01:37.092Z,100970.35
2022-10-13T09:04:11.440Z,100971.04
2022-10-13T09:07:16.473Z,100968.11
2022-10-13T09:09:49.980Z,100966.66
2022-10-13T09:12:30.446Z,100959.75
2022-10-13T09:15:11.648Z,100952.36
2022-10-13T09:17:42.606Z,100942.96
2022-10-13T09:20:28.071Z,100945.27
2022-10-13T09:23:07.985Z,100943.04
2022-10-13T09:25:47.537Z,100942.39
2022-10-13T09:28:24.034Z,100940.01
2022-10-13T09:31:11.618Z,100940.52
2022-10-13T09:33:43.440Z,100934.58
2022-10-13T09:36:16.629Z,100934.50
2022-10-13T09:39:18.186Z,100939.64
2022-10-13T09:41:53.045Z,100938.32
2022-10-13T09:44:31.001Z,100943.73
2022-10-13T09:47:02.872Z,100940.55
2022-10-13T09:49:39.343Z,100931.98
2022-10-13T09:52:14.008Z,100935.02
2022-10-13T09:54:47.541Z,100932.43
2022-10-13T09:57:47.665Z,100928.77
2022-10-13T10:00:23.185Z,100927.09
2022-10-13T10:03:19.659Z,100918.08
2022-10-13T10:09:04.810Z,100921.52
2022-10-13T10:11:41.419Z,100920.38
2022-10-13T10:14:26.712Z,100921.31
2022-10-13T10:17:18.966Z,100917.02
2022-10-13T10:20:16.593Z,100909.79
2022-10-13T10:22:57.113Z,100905.75
2022-10-13T10:25:49.771Z,100908.43
2022-10-13T10:28:45.977Z,100913.59
2022-10-13T10:31:47.735Z,100907.39
2022-10-13T10:34:32.196Z,100898.80
2022-10-13T10:37:21.113Z,100886.35
2022-10-13T10:40:07.069Z,100882.51
2022-10-13T10:42:52.749Z,100890.96
2022-10-13T10:45:40.950Z,100882.24
2022-10-13T10:48:23.435Z,100874.27
2022-10-13T10:50:58.062Z,100869.89
2022-10-13T10:53:58.203Z,100866.17
2022-10-13T10:56:41.350Z,100863.11
2022-10-13T10:59:52.805Z,100871.05
2022-10-13T11:02:41.828Z,100866.38
2022-10-13T11:05:11.060Z,100864.48
2022-10-13T11:07:39.636Z,100864.23
2022-10-13T11:10:14.585Z,100868.30
2022-10-13T11:12:53.361Z,100875.34
2022-10-13T11:15:21.963Z,100865.34
2022-10-13T11:17:51.752Z,100863.34
2022-10-13T11:20:21.065Z,100859.27
2022-10-13T11:23:00.547Z,100863.01
2022-10-13T11:25:45.018Z,100855.95
2022-10-13T11:28:22.543Z,100852.20
2022-10-13T11:30:57.378Z,100850.81
2022-10-13T11:33:41.263Z,100844.36
2022-10-13T11:36:34.924Z,100848.42
2022-10-13T11:39:28.695Z,100840.67
2022-10-13T11:42:23.238Z,100841.94
2022-10-13T11:45:33.921Z,100831.16
2022-10-13T11:48:28.547Z,100828.73
2022-10-13T11:51:26.909Z,100828.73
2022-10-13T11:54:20.360Z,100819.58
2022-10-13T11:56:54.769Z,100817.59
2022-10-13T11:59:38.029Z,100817.23
2022-10-13T12:02:12.953Z,100816.77
2022-10-13T12:04:46.444Z,100819.96
2022-10-13T12:07:17.680Z,100816.90
2022-10-13T12:09:54.757Z,100819.35
2022-10-13T12:12:25.569Z,100810.52
2022-10-13T12:14:59.985Z,100802.84
2022-10-13T12:17:36.302Z,100807.35
2022-10-13T12:20:20.154Z,100805.20
2022-10-13T12:22:50.668Z,100802.89
2022-10-13T12:25:27.529Z,100799.05
2022-10-13T12:28:01.445Z,100796.81
2022-10-13T12:30:38.266Z,100800.88
2022-10-13T12:33:27.479Z,100793.36
2022-10-13T12:36:13.482Z,100787.61
2022-10-13T12:38:47.883Z,100783.41
2022-10-13T12:41:26.909Z,100776.29
2022-10-13T12:44:08.064Z,100771.27
2022-10-13T12:47:04.661Z,100766.75
2022-10-13T12:49:39.634Z,100776.64
2022-10-13T12:52:22.313Z,100766.49
2022-10-13T12:55:00.020Z,100756.95
2022-10-13T12:57:36.529Z,100753.25
2022-10-13T13:00:22.792Z,100751.48
2022-10-13T13:03:04.069Z,100753.36
2022-10-13T13:05:40.020Z,100748.45
2022-10-13T13:08:23.760Z,100748.81
2022-10-13T13:10:59.913Z,100739.00
2022-10-13T13:13:29.906Z,100743.17
2022-10-13T13:16:22.424Z,100739.02
2022-10-13T13:18:52.568Z,100739.69
2022-10-13T13:21:21.315Z,100738.77
2022-10-13T13:23:53.718Z,100732.45
2022-10-13T13:26:24.734Z,100727.59
2022-10-13T13:28:56.804Z,100722.27
2022-10-13T13:31:26.975Z,100718.89
2022-10-13T13:33:56.523Z,100719.84
2022-10-13T13:36:27.288Z,100719.66
2022-10-13T13:38:56.244Z,100723.45
2022-10-13T13:41:28.189Z,100721.39
2022-10-13T13:43:58.350Z,100724.61
2022-10-13T13:46:32.541Z,100721.61
2022-10-13T13:49:03.481Z,100718.23
2022-10-13T13:51:32.434Z,100713.91
2022-10-13T13:54:01.803Z,100716.90
2022-10-13T13:56:30.936Z,100718.50
2022-10-13T13:59:01.958Z,100717.16
2022-10-13T14:01:33.042Z,100716.05
2022-10-13T14:04:03.527Z,100717.00
2022-10-13T14:06:32.223Z,100718.60
2022-10-13T14:09:01.209Z,100720.47
2022-10-13T14:11:31.829Z,100724.33
2022-10-13T14:14:02.612Z,100725.33
2022-10-13T14:16:31.309Z,100722.95
2022-10-13T14:19:02.776Z,100727.48
2022-10-13T14:21:31.461Z,100725.18
2022-10-13T14:24:00.882Z,100724.45
2022-10-13T14:26:56.767Z,100721.83
2022-10-13T14:29:27.478Z,100721.06
2022-10-13T14:31:58.032Z,100716.19
2022-10-13T14:34:28.102Z,100711.86
2022-10-13T14:37:02.218Z,100708.55
2022-10-13T14:39:33.287Z,100710.87
2022-10-13T14:42:03.386Z,100708.80
2022-10-13T14:44:39.084Z,100706.66
2022-10-13T14:47:12.541Z,100705.74
2022-10-13T14:49:41.519Z,100703.66
2022-10-13T14:52:10.387Z,100702.30
2022-10-13T14:54:42.460Z,100704.92
2022-10-13T14:57:19.625Z,100705.84
2022-10-13T14:59:50.749Z,100707.19
2022-10-13T15:02:20.382Z,100701.55
2022-10-13T15:04:56.020Z,100699.45
2022-10-13T15:07:28.164Z,100697.98
2022-10-13T15:10:05.340Z,100691.66
2022-10-13T15:12:35.443Z,100691.24
2022-10-13T15:15:10.621Z,100691.41
2022-10-13T15:17:45.011Z,100691.10
2022-10-13T15:20:17.825Z,100687.45
2022-10-13T15:22:49.505Z,100684.98
2022-10-13T15:25:19.159Z,100677.78
2022-10-13T15:27:49.836Z,100679.90
2022-10-13T15:30:20.815Z,100676.11
2022-10-13T15:32:51.215Z,100677.36
2022-10-13T15:35:22.152Z,100679.34
2022-10-13T15:37:52.582Z,100679.68
2022-10-13T15:40:22.265Z,100678.35
2022-10-13T15:42:51.280Z,100679.11
2022-10-13T15:45:21.209Z,100680.52
2022-10-13T15:47:53.462Z,100685.06
2022-10-13T15:50:22.470Z,100682.81
2022-10-13T15:52:52.652Z,100676.15
2022-10-13T15:55:22.879Z,100676.32
2022-10-13T15:57:53.901Z,100674.08
2022-10-13T16:00:24.821Z,100673.47
2022-10-13T16:02:56.304Z,100670.35
2022-10-13T16:05:25.579Z,100663.10
2022-10-13T16:07:54.685Z,100657.17
2022-10-13T16:10:23.584Z,100649.20
2022-10-13T16:12:52.591Z,100654.14
2022-10-13T16:15:22.372Z,100656.36
2022-10-13T16:17:53.844Z,100658.88
2022-10-13T16:20:22.916Z,100662.39
2022-10-13T16:22:52.765Z,100661.44
2022-10-13T16:25:22.161Z,100658.01
2022-10-13T16:27:53.706Z,100658.53
2022-10-13T16:30:24.832Z,100658.05
2022-10-13T16:32:54.611Z,100656.77
2022-10-13T16:35:23.783Z,100651.51
2022-10-13T16:37:54.082Z,100649.41
2022-10-13T16:40:23.771Z,100647.90
2022-10-13T16:42:55.690Z,100651.08
2022-10-13T16:45:41.245Z,100650.70
2022-10-13T16:48:15.342Z,100650.58
2022-10-13T16:50:44.664Z,100650.80
2022-10-13T16:53:14.156Z,100653.94
2022-10-13T16:55:45.262Z,100659.52
2022-10-13T16:58:15.192Z,100657.29
2022-10-13T17:00:47.010Z,100656.73
2022-10-13T17:03:17.141Z,100660.56
2022-10-13T17:05:48.383Z,100662.99
2022-10-13T17:08:17.481Z,100663.04
2022-10-13T17:10:53.838Z,100662.23
2022-10-13T17:13:27.393Z,100658.31
2022-10-13T17:15:58.711Z,100659.40
2022-10-13T17:18:31.024Z,100654.01
2022-10-13T17:21:06.414Z,100651.91
2022-10-13T17:23:39.131Z,100649.56
2022-10-13T17:26:11.897Z,100648.56
2022-10-13T17:28:46.096Z,100645.42
2022-10-13T17:31:19.675Z,100644.88
2022-10-13T17:33:54.063Z,100640.99
2022-10-13T17:36:27.134Z,100640.87
2022-10-13T17:39:02.788Z,100638.70
2022-10-13T17:41:33.711Z,100641.27
2022-10-13T17:44:05.225Z,100640.14
2022-10-13T17:46:39.561Z,100643.30
2022-10-13T17:49:14.078Z,100643.22
2022-10-13T17:51:45.326Z,100642.94
2022-10-13T17:54:16.804Z,100639.69
2022-10-13T17:56:49.944Z,100638.52
2022-10-13T17:59:20.677Z,100640.09
2022-10-13T18:01:51.987Z,100643.11
2022-10-13T18:04:22.892Z,100644.21
2022-10-13T18:06:55.308Z,100641.95
2022-10-13T18:09:27.600Z,100641.55
2022-10-13T18:12:01.775Z,100646.81
2022-10-13T18:14:32.145Z,100641.48
2022-10-13T18:17:03.312Z,100642.61
2022-10-13T18:19:40.148Z,100642.78
2022-10-13T18:22:14.704Z,100639.92
2022-10-13T18:24:51.245Z,100640.33
2022-10-13T18:31:56.065Z,100634.00
2022-10-13T18:34:27.343Z,100634.23
2022-10-13T18:37:00.436Z,100628.59
2022-10-13T18:39:33.396Z,100627.06
2022-10-13T18:42:03.820Z,100622.15
2022-10-13T18:44:44.759Z,100620.95
2022-10-13T18:47:18.628Z,100615.11
2022-10-13T18:49:48.891Z,100614.74
2022-10-13T18:52:21.235Z,100609.58
2022-10-13T18:55:00.932Z,100609.70
2022-10-13T18:57:30.896Z,100608.77
2022-10-13T19:00:02.469Z,100607.86
2022-10-13T19:02:33.122Z,100608.89
2022-10-13T19:05:02.954Z,100607.11
2022-10-13T19:07:38.892Z,100609.99
2022-10-13T19:10:12.604Z,100605.76
2022-10-13T19:12:43.252Z,100606.83
2022-10-13T19:15:14.735Z,100607.23
2022-10-13T19:17:48.614Z,100605.15
2022-10-13T19:20:21.984Z,100602.73
2022-10-13T19:22:54.625Z,100604.24
2022-10-13T19:25:25.802Z,100599.56
2022-10-13T19:28:01.414Z,100594.69
2022-10-13T19:30:31.632Z,100597.52
2022-10-13T19:33:03.295Z,100595.92
2022-10-13T19:35:54.922Z,100598.50
2022-10-13T19:38:27.655Z,100603.54
2022-10-13T19:41:04.487Z,100607.41
2022-10-13T19:43:38.563Z,100601.52
2022-10-13T19:46:10.024Z,100592.71
2022-10-13T19:48:45.712Z,100590.73
2022-10-13T19:51:16.809Z,100583.06
2022-10-13T19:53:46.770Z,100582.41
2022-10-13T19:56:25.236Z,100587.70
2022-10-13T19:58:55.686Z,100592.06
2022-10-13T20:01:27.649Z,100593.95
2022-10-13T20:03:58.823Z,100594.33
2022-10-13T20:06:27.873Z,100594.53
2022-10-13T20:08:59.360Z,100595.16
2022-10-13T20:11:30.865Z,100591.50
2022-10-13T20:13:59.815Z,100589.63
2022-10-13T20:16:30.732Z,100587.70
2022-10-13T20:19:03.266Z,100585.40
2022-10-13T20:21:33.552Z,100587.33
2022-10-13T20:24:02.564Z,100585.34
2022-10-13T20:26:57.454Z,100582.89
2022-10-13T20:29:28.025Z,100580.38
2022-10-13T20:31:57.904Z,100581.55
2022-10-13T20:34:28.255Z,100582.41
2022-10-13T20:36:59.512Z,100584.42
2022-10-13T20:39:30.776Z,100579.05
2022-10-13T20:42:01.898Z,100579.38
2022-10-13T20:44:31.224Z,100579.74
2022-10-13T20:47:01.404Z,100577.00
2022-10-13T20:49:30.423Z,100582.22
2022-10-13T20:51:59.813Z,100581.90
2022-10-13T20:54:30.655Z,100576.41
2022-10-13T20:57:00.581Z,100578.98
2022-10-13T20:59:29.372Z,100571.30
2022-10-13T21:01:59.365Z,100572.30
2022-10-13T21:04:29.699Z,100570.46
2022-10-13T21:06:59.022Z,100572.23
2022-10-13T21:09:28.172Z,100569.27
2022-10-13T21:11:57.034Z,100568.46
2022-10-13T21:14:27.501Z,100566.45
2022-10-13T21:17:00.167Z,100567.41
2022-10-13T21:19:29.685Z,100567.47
2022-10-13T21:22:01.647Z,100566.98
2022-10-13T21:24:31.230Z,100566.45
2022-10-13T21:28:18.331Z,100560.28
2022-10-13T21:31:04.512Z,100563.86
2022-10-13T21:33:35.812Z,100560.46
2022-10-13T21:36:14.899Z,100557.77
2022-10-13T21:38:45.201Z,100559.92
2022-10-13T21:41:17.287Z,100557.00
2022-10-13T21:43:46.529Z,100559.73
2022-10-13T21:46:20.460Z,100557.13
2022-10-13T21:48:59.516Z,100555.20
2022-10-13T21:51:31.141Z,100560.59
2022-10-13T21:54:03.865Z,100558.71
2022-10-13T21:56:34.683Z,100552.27
2022-10-13T21:59:05.033Z,100552.16
2022-10-13T22:01:37.306Z,100547.58
2022-10-13T22:04:13.670Z,100543.12
2022-10-13T22:06:43.244Z,100539.09
2022-10-13T22:09:14.357Z,100534.13
2022-10-13T22:11:43.600Z,100530.48
2022-10-13T22:14:13.945Z,100530.05
2022-10-13T22:16:49.019Z,100528.44
2022-10-13T22:19:20.053Z,100534.55
2022-10-13T22:21:52.271Z,100532.39
2022-10-13T22:24:23.670Z,100531.15
2022-10-13T22:26:52.621Z,100531.15
2022-10-13T22:29:27.552Z,100529.66
2022-10-13T22:31:58.508Z,100527.25
2022-10-13T22:34:28.659Z,100524.77
2022-10-13T22:36:57.759Z,100522.39
2022-10-13T22:39:27.977Z,100518.84
2022-10-13T22:41:57.865Z,100522.20
2022-10-13T22:44:26.835Z,100524.42
2022-10-13T22:46:56.968Z,100527.65
2022-10-13T22:49:25.784Z,100525.64
2022-10-13T22:51:56.436Z,100522.86
2022-10-13T22:54:26.610Z,100521.14
2022-10-13T22:56:56.483Z,100518.56
2022-10-13T22:59:26.661Z,100515.70
2022-10-13T23:01:56.871Z,100515.66
2022-10-13T23:04:26.407Z,100513.44
2022-10-13T23:06:56.931Z,100512.23
2022-10-13T23:09:26.177Z,100511.59
2022-10-13T23:11:58.966Z,100509.91
2022-10-13T23:14:31.183Z,100504.02
2022-10-13T23:17:00.143Z,100507.96
2022-10-13T23:19:30.966Z,100502.89
2022-10-13T23:22:00.814Z,100504.86
2022-10-13T23:24:33.470Z,100503.02
2022-10-13T23:27:06.252Z,100504.14
2022-10-13T23:29:35.212Z,100501.44
2022-10-13T23:32:09.576Z,100500.67
2022-10-13T23:34:39.940Z,100500.23
2022-10-13T23:37:09.767Z,100498.46
2022-10-13T23:39:39.259Z,100497.83
2022-10-13T23:42:10.366Z,100497.33
2022-10-13T23:44:41.033Z,100499.80
2022-10-13T23:47:09.710Z,100493.14
2022-10-13T23:49:39.466Z,100495.19
2022-10-13T23:52:10.925Z,100491.17
2022-10-13T23:54:39.921Z,100485.10
2022-10-13T23:57:08.584Z,100483.77
2022-10-13T23:59:37.683Z,100480.83
